Time;durP1;ratioP1;P1;durP2;ratioP2;P2;SDS_P1;SDS_P2;PMS_P1;PMS_P2;Temp;Humidity;BMP_temperature;BMP_pressure;BME280_temperature;BME280_humidity;BME280_pressure;Samples;Min_cycle;Max_cycle;Signal;HPM_P1;HPM_P2
2023/10/11 00:02:55;;;;;;;8.73;4.32;;;14.30;79.80;;;;;;4985730;28;20122;-65
2023/10/11 00:05:22;;;;;;;10.52;4.72;;;14.20;79.80;;;;;;4984685;28;20077;-65
2023/10/11 00:07:48;;;;;;;9.27;4.53;;;14.20;79.80;;;;;;4986209;28;20331;-65
2023/10/11 00:10:19;;;;;;;8.18;4.35;;;14.20;79.90;;;;;;4985748;28;20513;-65
2023/10/11 00:12:46;;;;;;;7.82;4.68;;;14.10;79.90;;;;;;4979845;28;20050;-65
2023/10/11 00:15:11;;;;;;;11.85;4.82;;;14.10;80.00;;;;;;4985091;28;20030;-65
2023/10/11 00:17:37;;;;;;;10.10;4.68;;;14.10;80.20;;;;;;4984075;28;20034;-66
2023/10/11 00:20:34;;;;;;;13.13;5.30;;;14.00;80.40;;;;;;4986290;28;20082;-66
2023/10/11 00:22:55;;;;;;;8.35;4.57;;;13.90;80.40;;;;;;4984075;28;20544;-65
2023/10/11 00:25:24;;;;;;;9.38;5.20;;;13.90;80.40;;;;;;4988019;28;20042;-66
2023/10/11 00:27:52;;;;;;;13.07;5.38;;;13.90;80.60;;;;;;4985327;28;20047;-66
2023/10/11 00:30:17;;;;;;;9.10;4.78;;;13.90;80.70;;;;;;4986271;28;20038;-65
2023/10/11 00:32:46;;;;;;;8.82;4.93;;;13.80;80.80;;;;;;4983948;28;20390;-65
2023/10/11 00:35:18;;;;;;;8.65;4.93;;;13.80;81.00;;;;;;4986560;28;20034;-66
2023/10/11 00:37:44;;;;;;;9.80;4.80;;;13.80;80.90;;;;;;4983966;28;20096;-64
2023/10/11 00:40:14;;;;;;;11.32;5.13;;;13.80;80.90;;;;;;4986371;28;20054;-65
2023/10/11 00:42:40;;;;;;;8.57;4.93;;;13.70;81.00;;;;;;4983149;28;20046;-65
2023/10/11 00:45:08;;;;;;;9.55;4.88;;;13.70;81.00;;;;;;4984246;28;20528;-65
2023/10/11 00:47:40;;;;;;;12.10;4.57;;;13.70;81.00;;;;;;4981631;28;20042;-65
2023/10/11 00:50:10;;;;;;;6.75;4.03;;;13.70;80.90;;;;;;4984435;28;20038;-65
2023/10/11 00:52:36;;;;;;;7.15;3.85;;;13.70;80.70;;;;;;4983927;28;20038;-65
2023/10/11 00:55:08;;;;;;;6.38;3.75;;;13.70;80.80;;;;;;4983769;28;20038;-65
2023/10/11 00:57:34;;;;;;;6.80;3.90;;;13.60;80.80;;;;;;4986572;28;20129;-65
2023/10/11 01:00:00;;;;;;;10.90;4.47;;;13.60;80.90;;;;;;4982301;28;20034;-65
2023/10/11 01:02:27;;;;;;;8.55;5.00;;;13.60;81.00;;;;;;4981384;28;20057;-65
2023/10/11 01:04:53;;;;;;;11.32;5.07;;;13.60;81.10;;;;;;4978417;28;20406;-65
2023/10/11 01:07:19;;;;;;;11.57;4.95;;;13.60;81.20;;;;;;4980477;28;20039;-65
2023/10/11 01:09:45;;;;;;;10.50;5.80;;;13.50;81.30;;;;;;4983543;28;20105;-65
2023/10/11 01:12:10;;;;;;;9.93;4.78;;;13.50;81.50;;;;;;4983909;28;20122;-65
2023/10/11 01:14:56;;;;;;;8.05;4.97;;;13.30;81.50;;;;;;4983289;28;20053;-65
2023/10/11 01:17:23;;;;;;;6.00;4.15;;;13.40;81.50;;;;;;4983170;28;20104;-65
2023/10/11 01:19:51;;;;;;;6.68;4.30;;;13.40;81.50;;;;;;4982956;28;20050;-65
2023/10/11 01:22:20;;;;;;;6.35;4.13;;;13.40;81.60;;;;;;4983492;28;20584;-65
2023/10/11 01:24:47;;;;;;;7.18;3.88;;;13.40;81.70;;;;;;4982705;28;20197;-65
2023/10/11 01:27:16;;;;;;;7.97;4.05;;;13.30;81.70;;;;;;4985475;28;20080;-65
2023/10/11 01:29:42;;;;;;;7.75;4.60;;;13.40;81.80;;;;;;4985235;28;20042;-65
2023/10/11 01:32:08;;;;;;;12.23;4.53;;;13.30;81.60;;;;;;4982249;28;20085;-64
2023/10/11 01:34:33;;;;;;;6.50;4.13;;;13.30;81.50;;;;;;4980735;28;20038;-64
2023/10/11 01:37:00;;;;;;;6.57;4.15;;;13.30;81.50;;;;;;4984038;28;20044;-65
2023/10/11 01:39:25;;;;;;;8.55;4.68;;;13.30;81.50;;;;;;4983550;28;20026;-64
2023/10/11 01:41:58;;;;;;;5.60;4.35;;;13.30;81.60;;;;;;4985633;28;20448;-65
2023/10/11 01:44:24;;;;;;;11.40;4.82;;;13.20;81.60;;;;;;4981859;28;20489;-65
2023/10/11 01:46:49;;;;;;;6.00;3.65;;;13.20;81.50;;;;;;4980369;28;20467;-64
2023/10/11 01:49:15;;;;;;;10.50;4.03;;;13.10;81.50;;;;;;4984945;28;20069;-64
2023/10/11 01:51:47;;;;;;;6.60;4.18;;;13.10;81.50;;;;;;4982795;28;20031;-64
2023/10/11 01:54:15;;;;;;;6.72;4.18;;;13.10;81.70;;;;;;4978738;28;20039;-65
2023/10/11 01:56:41;;;;;;;6.50;3.90;;;13.10;81.80;;;;;;4976831;28;20046;-65
2023/10/11 01:59:07;;;;;;;6.38;4.40;;;13.00;81.80;;;;;;4980497;28;20037;-64
2023/10/11 02:01:38;;;;;;;7.63;4.50;;;12.90;81.70;;;;;;4980793;28;20022;-64
2023/10/11 02:04:10;;;;;;;8.35;3.92;;;13.00;81.90;;;;;;4985556;28;20034;-65
2023/10/11 02:06:38;;;;;;;6.60;4.35;;;12.90;81.90;;;;;;4982629;28;20030;-65
2023/10/11 02:09:04;;;;;;;7.10;3.85;;;12.90;81.90;;;;;;4981807;28;20041;-64
2023/10/11 02:11:29;;;;;;;9.55;3.95;;;12.90;82.00;;;;;;4980157;28;20293;-64
2023/10/11 02:13:59;;;;;;;6.35;3.72;;;12.80;82.00;;;;;;4983633;28;20037;-64
2023/10/11 02:16:25;;;;;;;5.68;3.67;;;12.80;82.30;;;;;;4980691;28;20341;-64
2023/10/11 02:19:09;;;;;;;9.15;4.47;;;12.80;82.30;;;;;;4982761;28;20026;-64
2023/10/11 02:21:36;;;;;;;10.50;4.80;;;12.80;82.20;;;;;;4982690;28;20040;-65
2023/10/11 02:24:04;;;;;;;8.75;5.35;;;12.80;82.30;;;;;;4982897;28;20026;-65
2023/10/11 02:26:31;;;;;;;10.00;5.43;;;12.70;82.20;;;;;;4980688;28;20080;-65
2023/10/11 02:29:00;;;;;;;11.55;5.60;;;12.70;82.50;;;;;;4985303;28;20624;-65
2023/10/11 02:31:27;;;;;;;12.93;5.10;;;12.70;82.70;;;;;;4981951;28;20484;-64
2023/10/11 02:34:04;;;;;;;7.93;4.75;;;12.60;82.80;;;;;;4984776;28;20038;-64
2023/10/11 02:36:34;;;;;;;10.65;5.07;;;12.60;82.90;;;;;;4981214;28;20623;-65
2023/10/11 02:39:00;;;;;;;7.93;5.10;;;12.60;83.00;;;;;;4985428;28;20038;-64
2023/10/11 02:41:29;;;;;;;10.68;5.15;;;12.60;83.10;;;;;;4984027;28;20035;-64
2023/10/11 02:43:57;;;;;;;11.07;5.45;;;12.60;83.10;;;;;;4983231;28;20049;-64
2023/10/11 02:46:24;;;;;;;8.40;5.43;;;12.60;83.10;;;;;;4980391;28;20030;-65
2023/10/11 02:49:06;;;;;;;10.02;5.60;;;12.50;83.10;;;;;;4980717;28;20057;-65
2023/10/11 02:51:33;;;;;;;8.25;5.30;;;12.50;83.40;;;;;;4981945;28;20502;-65
2023/10/11 02:54:04;;;;;;;10.35;5.93;;;12.60;83.20;;;;;;4982382;28;20035;-64
2023/10/11 02:56:39;;;;;;;9.98;5.68;;;12.60;83.30;;;;;;4979687;28;20034;-64
2023/10/11 02:59:07;;;;;;;;;;;12.60;83.20;;;;;;4982983;28;20743;-64
2023/10/11 03:01:32;;;;;;;10.05;5.05;;;12.60;83.60;;;;;;4983873;28;19945;-64
2023/10/11 03:04:01;;;;;;;14.07;6.20;;;12.60;82.60;;;;;;4979708;28;20118;-64
2023/10/11 03:06:27;;;;;;;10.05;5.22;;;12.50;82.70;;;;;;4983345;28;20034;-64
2023/10/11 03:08:53;;;;;;;11.57;6.20;;;12.50;82.70;;;;;;4981686;28;20035;-65
2023/10/11 03:11:18;;;;;;;9.48;5.70;;;12.50;82.80;;;;;;4979343;28;20080;-65
2023/10/11 03:13:45;;;;;;;10.30;5.18;;;12.50;82.70;;;;;;4980827;28;20045;-64
2023/10/11 03:16:17;;;;;;;7.35;5.05;;;12.50;82.70;;;;;;4982731;28;20034;-64
2023/10/11 03:18:46;;;;;;;11.30;5.60;;;12.40;82.70;;;;;;4980152;28;20038;-64
2023/10/11 03:23:49;;;;;;;12.10;5.60;;;12.40;82.90;;;;;;4982021;28;20046;-65
2023/10/11 03:26:31;;;;;;;12.32;5.88;;;12.40;83.70;;;;;;4989938;28;20084;-65
2023/10/11 03:28:58;;;;;;;10.52;5.47;;;12.30;82.90;;;;;;4988296;28;20627;-64
2023/10/11 03:31:29;;;;;;;10.07;5.72;;;12.30;82.70;;;;;;4989208;28;20409;-65
2023/10/11 03:33:55;;;;;;;11.75;5.28;;;12.20;83.00;;;;;;4981982;28;20153;-64
2023/10/11 03:36:28;;;;;;;10.88;6.00;;;12.20;82.90;;;;;;4987647;28;20034;-64
2023/10/11 03:38:54;;;;;;;10.05;5.18;;;12.10;83.00;;;;;;4985761;28;20125;-64
2023/10/11 03:41:29;;;;;;;8.48;5.32;;;12.20;83.30;;;;;;4987619;28;20060;-64
2023/10/11 03:44:09;;;;;;;8.27;5.18;;;12.10;83.40;;;;;;4992192;28;20545;-65
2023/10/11 03:46:38;;;;;;;8.80;4.85;;;12.10;83.50;;;;;;4984790;28;20177;-65
2023/10/11 03:51:48;;;;;;;9.43;4.80;;;12.10;83.30;;;;;;4991825;28;20042;-64
2023/10/11 03:54:23;;;;;;;8.32;4.97;;;12.00;83.10;;;;;;4992552;28;20661;-65
2023/10/11 03:56:53;;;;;;;9.27;5.07;;;12.00;83.20;;;;;;4989628;28;20057;-64
2023/10/11 03:59:26;;;;;;;9.90;5.30;;;12.00;83.30;;;;;;4983763;28;20402;-64
2023/10/11 04:01:52;;;;;;;8.20;4.72;;;12.00;83.40;;;;;;4985664;28;20453;-64
2023/10/11 04:04:21;;;;;;;10.18;4.40;;;12.00;83.20;;;;;;4985983;28;20092;-65
2023/10/11 04:06:51;;;;;;;9.73;4.80;;;11.90;83.20;;;;;;4987501;28;20058;-65
2023/10/11 04:12:03;;;;;;;6.05;4.45;;;11.90;83.10;;;;;;4986148;28;20569;-64
2023/10/11 04:14:49;;;;;;;10.52;4.72;;;11.90;82.90;;;;;;4986862;28;20054;-64
2023/10/11 04:19:53;;;;;;;8.32;4.70;;;11.90;83.10;;;;;;4987521;28;20034;-64
2023/10/11 04:22:25;;;;;;;7.78;4.43;;;11.80;83.20;;;;;;4988122;28;20028;-65
2023/10/11 04:24:54;;;;;;;8.60;4.85;;;11.80;83.10;;;;;;4982818;28;20450;-65
2023/10/11 04:29:53;;;;;;;10.27;6.05;;;11.80;83.30;;;;;;4990728;28;20046;-65
2023/10/11 04:35:21;;;;;;;9.18;5.32;;;11.80;83.30;;;;;;4989047;28;20566;-65
2023/10/11 04:38:11;;;;;;;9.73;4.40;;;11.70;83.00;;;;;;4988155;28;20042;-64
2023/10/11 04:40:52;;;;;;;8.82;4.45;;;11.80;83.10;;;;;;4986625;28;20027;-65
2023/10/11 04:43:25;;;;;;;9.48;4.75;;;11.70;83.20;;;;;;4986004;28;20034;-64
2023/10/11 04:45:54;;;;;;;10.60;4.55;;;11.70;83.30;;;;;;4986810;28;20325;-65
2023/10/11 04:48:36;;;;;;;9.57;4.68;;;11.70;83.30;;;;;;4988066;28;20446;-64
2023/10/11 04:51:04;;;;;;;9.02;3.90;;;11.70;83.50;;;;;;4987243;28;20038;-65
2023/10/11 04:53:54;;;;;;;12.35;4.75;;;11.70;83.60;;;;;;4985943;28;20044;-64
2023/10/11 04:59:08;;;;;;;13.75;4.90;;;11.60;83.60;;;;;;4986755;28;20053;-65
2023/10/11 05:04:41;;;;;;;11.85;6.07;;;11.70;84.20;;;;;;4962930;28;20034;-65
2023/10/11 05:07:07;;;;;;;12.88;8.38;;;11.70;83.40;;;;;;4985394;28;20034;-65
2023/10/11 05:09:38;;;;;;;14.63;8.52;;;11.70;83.30;;;;;;4986185;28;20153;-64
2023/10/11 05:12:09;;;;;;;13.77;8.35;;;11.60;83.30;;;;;;4985702;28;20035;-64
2023/10/11 05:19:45;;;;;;;14.73;6.95;;;11.50;83.00;;;;;;4986713;28;20038;-64
2023/10/11 05:22:29;;;;;;;16.05;7.28;;;11.50;83.10;;;;;;4986100;28;20108;-65
2023/10/11 05:32:49;;;;;;;8.35;5.03;;;11.40;83.60;;;;;;4985668;28;20038;-65
2023/10/11 05:35:24;;;;;;;11.45;5.57;;;11.40;83.70;;;;;;4986546;28;20107;-65
2023/10/11 05:51:39;;;;;;;9.00;4.65;;;11.30;83.80;;;;;;4985615;28;20057;-65
2023/10/11 05:54:07;;;;;;;8.15;4.57;;;11.20;83.80;;;;;;4986061;28;20037;-65
2023/10/11 05:56:33;;;;;;;9.00;4.47;;;11.20;84.00;;;;;;4985299;28;20034;-65
2023/10/11 05:59:03;;;;;;;8.45;4.75;;;11.20;84.20;;;;;;4985775;28;20446;-65
2023/10/11 06:01:30;;;;;;;12.98;4.90;;;11.20;84.50;;;;;;4985859;28;20034;-65
2023/10/11 06:03:56;;;;;;;9.50;4.50;;;11.20;84.60;;;;;;4984875;28;20311;-65
2023/10/11 06:06:23;;;;;;;9.00;4.05;;;11.10;84.80;;;;;;4986426;28;20576;-65
2023/10/11 06:08:53;;;;;;;11.07;3.90;;;11.10;84.90;;;;;;4982505;28;20453;-65
2023/10/11 06:11:20;;;;;;;10.07;4.45;;;11.10;85.10;;;;;;4984817;28;20041;-65
2023/10/11 06:13:47;;;;;;;12.57;4.75;;;11.20;85.20;;;;;;4985252;28;20498;-64
2023/10/11 06:16:16;;;;;;;10.13;4.72;;;11.20;85.40;;;;;;4984410;28;20453;-65
2023/10/11 06:18:57;;;;;;;9.68;4.82;;;11.20;85.60;;;;;;4984326;28;20122;-65
2023/10/11 06:21:32;;;;;;;11.35;4.57;;;11.20;85.70;;;;;;4986772;28;20110;-64
2023/10/11 06:23:59;;;;;;;11.02;4.78;;;11.20;85.90;;;;;;4982983;28;20034;-64
2023/10/11 06:26:28;;;;;;;9.90;4.53;;;11.20;85.90;;;;;;4985374;28;20104;-65
2023/10/11 06:29:04;;;;;;;12.63;5.57;;;11.30;86.00;;;;;;4985597;28;20486;-64
2023/10/11 06:31:39;;;;;;;11.38;5.20;;;11.30;86.50;;;;;;4985552;28;20042;-64
2023/10/11 06:34:24;;;;;;;;;;;11.30;86.80;;;;;;4986808;28;20569;-65
2023/10/11 06:36:51;;;;;;;9.68;4.75;;;11.30;87.70;;;;;;4985935;28;20369;-65
2023/10/11 06:39:50;;;;;;;11.75;4.72;;;11.40;86.40;;;;;;4982967;28;20072;-64
2023/10/11 06:44:48;;;;;;;8.48;4.95;;;11.50;87.50;;;;;;4982769;28;20503;-65
2023/10/11 06:47:15;;;;;;;11.32;5.30;;;11.50;87.60;;;;;;4982972;28;20307;-65
2023/10/11 06:49:44;;;;;;;11.63;5.68;;;11.60;87.90;;;;;;4986818;28;20042;-64
2023/10/11 06:52:19;;;;;;;14.25;5.88;;;11.60;88.30;;;;;;4984819;28;20034;-64
2023/10/11 06:54:47;;;;;;;10.27;5.57;;;11.70;89.60;;;;;;4983628;28;20173;-64
2023/10/11 06:57:19;;;;;;;9.88;5.60;;;11.80;89.40;;;;;;4984519;28;20065;-65
2023/10/11 06:59:49;;;;;;;12.63;6.18;;;11.90;89.90;;;;;;4983531;28;20041;-64
2023/10/11 07:02:31;;;;;;;15.88;7.45;;;12.00;89.50;;;;;;4984587;28;20030;-64
2023/10/11 07:04:58;;;;;;;18.85;7.97;;;12.10;89.50;;;;;;4984352;28;20086;-64
2023/10/11 07:07:25;;;;;;;21.20;7.20;;;12.20;90.20;;;;;;4984134;28;20177;-65
2023/10/11 07:09:57;;;;;;;19.85;7.63;;;12.30;90.00;;;;;;4984729;28;20062;-64
2023/10/11 07:12:39;;;;;;;16.17;8.15;;;12.40;90.00;;;;;;4983719;28;20038;-64
2023/10/11 07:15:07;;;;;;;15.20;7.28;;;12.50;90.40;;;;;;4983246;28;20045;-64
2023/10/11 07:17:33;;;;;;;15.45;5.97;;;12.70;90.20;;;;;;4983951;28;20038;-64
2023/10/11 07:20:00;;;;;;;13.73;5.50;;;12.70;90.50;;;;;;4984928;28;20112;-64
2023/10/11 07:22:34;;;;;;;12.13;5.10;;;12.90;90.80;;;;;;4984789;28;20061;-65
2023/10/11 07:25:18;;;;;;;14.87;5.50;;;13.10;91.10;;;;;;4984057;28;20038;-65
2023/10/11 07:27:44;;;;;;;13.77;5.00;;;13.30;91.20;;;;;;4984699;28;20635;-65
2023/10/11 07:30:16;;;;;;;19.38;5.57;;;13.50;91.20;;;;;;4984536;28;20045;-65
2023/10/11 07:32:45;;;;;;;18.35;5.70;;;13.80;91.30;;;;;;4982394;28;20524;-66
2023/10/11 07:35:19;;;;;;;17.92;5.47;;;13.90;91.30;;;;;;4984655;28;20673;-65
2023/10/11 07:37:45;;;;;;;15.63;5.78;;;14.20;91.10;;;;;;4983964;28;20092;-65
2023/10/11 07:40:18;;;;;;;16.85;6.13;;;14.40;91.00;;;;;;4983598;28;20031;-65
2023/10/11 07:42:44;;;;;;;27.60;6.57;;;14.50;90.90;;;;;;4983380;28;20421;-65
2023/10/11 07:45:12;;;;;;;18.67;6.32;;;14.80;90.80;;;;;;4984794;28;20056;-65
2023/10/11 07:47:48;;;;;;;13.23;5.88;;;14.90;90.70;;;;;;4984715;28;20121;-65
2023/10/11 07:50:14;;;;;;;18.55;6.25;;;15.10;90.60;;;;;;4982530;28;20051;-64
2023/10/11 07:52:42;;;;;;;14.30;5.55;;;15.20;90.40;;;;;;4983149;28;20038;-64
2023/10/11 07:55:12;;;;;;;18.98;5.88;;;15.40;90.20;;;;;;4984449;28;20040;-65
2023/10/11 07:57:44;;;;;;;16.85;5.85;;;15.50;90.10;;;;;;4981988;28;20038;-64
2023/10/11 08:00:17;;;;;;;14.65;4.93;;;15.60;90.00;;;;;;4984629;28;20034;-65
2023/10/11 08:03:05;;;;;;;23.48;5.55;;;15.70;89.70;;;;;;4981901;28;20035;-65
2023/10/11 08:05:35;;;;;;;16.08;5.32;;;15.80;89.70;;;;;;4986372;28;20066;-64
2023/10/11 08:08:01;;;;;;;18.02;5.80;;;16.00;89.40;;;;;;4982943;28;20616;-64
2023/10/11 08:10:29;;;;;;;17.40;5.97;;;16.10;89.30;;;;;;4986414;28;20034;-64
2023/10/11 08:12:57;;;;;;;10.43;5.13;;;16.20;89.40;;;;;;4987211;28;20494;-65
2023/10/11 08:15:25;;;;;;;9.70;5.03;;;16.30;89.00;;;;;;4989720;28;20038;-65
2023/10/11 08:17:51;;;;;;;11.18;5.40;;;16.40;88.70;;;;;;4987824;28;20149;-65
2023/10/11 08:20:17;;;;;;;16.83;6.50;;;16.50;88.50;;;;;;4987566;28;20546;-65
2023/10/11 08:22:46;;;;;;;13.55;5.55;;;16.60;88.30;;;;;;4987261;28;20113;-64
2023/10/11 08:25:12;;;;;;;13.55;4.68;;;16.70;88.00;;;;;;4988821;28;20027;-65
2023/10/11 08:27:39;;;;;;;10.55;4.63;;;16.80;87.80;;;;;;4988870;28;20042;-65
2023/10/11 08:30:08;;;;;;;11.35;4.88;;;16.90;87.50;;;;;;4988782;28;20414;-65
2023/10/11 08:32:37;;;;;;;13.85;5.22;;;17.00;87.40;;;;;;4988417;28;20033;-65
2023/10/11 08:35:15;;;;;;;11.93;4.57;;;17.10;87.10;;;;;;4988480;28;20038;-65
2023/10/11 08:37:41;;;;;;;15.10;3.90;;;17.20;86.70;;;;;;4989469;28;20418;-65
2023/10/11 08:40:23;;;;;;;13.27;4.82;;;17.40;86.60;;;;;;4987867;28;20027;-65
2023/10/11 08:42:52;;;;;;;9.68;4.45;;;17.50;86.10;;;;;;4987960;28;20041;-65
2023/10/11 08:45:44;;;;;;;11.90;4.25;;;17.70;85.70;;;;;;4987890;28;20057;-65
2023/10/11 08:48:11;;;;;;;16.25;4.45;;;17.90;85.20;;;;;;4985064;28;20034;-65
2023/10/11 08:50:37;;;;;;;14.77;4.55;;;18.00;85.90;;;;;;4988788;28;20514;-65
2023/10/11 08:53:09;;;;;;;15.75;4.75;;;18.10;84.30;;;;;;4987491;28;20086;-64
2023/10/11 08:55:41;;;;;;;13.80;4.75;;;18.30;83.50;;;;;;4988322;28;20031;-65
2023/10/11 08:58:12;;;;;;;12.05;3.80;;;18.40;83.30;;;;;;4988215;28;20037;-65
2023/10/11 09:00:38;;;;;;;13.18;3.80;;;18.60;83.30;;;;;;4986617;28;20112;-65
2023/10/11 09:03:20;;;;;;;13.68;4.15;;;18.70;82.70;;;;;;4987737;28;20093;-64
2023/10/11 09:05:47;;;;;;;10.98;4.32;;;18.80;81.30;;;;;;4987772;28;20395;-64
2023/10/11 09:08:26;;;;;;;11.25;4.45;;;18.90;81.60;;;;;;4986783;28;20068;-64
2023/10/11 09:10:51;;;;;;;12.85;4.57;;;19.00;80.60;;;;;;4985716;28;20109;-65
2023/10/11 09:13:26;;;;;;;11.50;3.92;;;19.20;80.80;;;;;;4988045;28;20062;-64
2023/10/11 09:15:56;;;;;;;13.50;4.20;;;19.20;79.90;;;;;;4986664;28;20043;-64
2023/10/11 09:18:25;;;;;;;12.68;4.28;;;19.30;80.10;;;;;;4990444;28;20058;-66
2023/10/11 09:21:29;;;;;;;11.32;4.35;;;19.40;79.80;;;;;;4990463;28;20109;-65
2023/10/11 09:23:49;;;;;;;15.43;4.03;;;19.50;79.50;;;;;;4987268;28;20042;-65
2023/10/11 09:26:32;;;;;;;15.30;4.63;;;19.60;79.30;;;;;;4987839;28;20085;-65
2023/10/11 09:29:02;;;;;;;8.98;4.40;;;19.70;79.30;;;;;;4988852;28;20560;-65
2023/10/11 09:31:30;;;;;;;13.13;4.50;;;19.70;79.30;;;;;;4986529;28;20482;-65
2023/10/11 09:34:07;;;;;;;10.88;4.15;;;19.80;80.00;;;;;;4987557;28;20525;-65
2023/10/11 09:36:33;;;;;;;14.82;5.28;;;19.90;78.90;;;;;;4986906;28;20406;-65
2023/10/11 09:39:02;;;;;;;15.45;4.78;;;20.00;79.00;;;;;;4986692;28;20042;-65
2023/10/11 09:41:38;;;;;;;8.40;4.25;;;20.10;78.90;;;;;;4985753;28;20409;-65
2023/10/11 09:44:05;;;;;;;9.25;4.18;;;20.10;78.40;;;;;;4987016;28;20038;-65
2023/10/11 09:46:33;;;;;;;11.10;4.53;;;20.20;78.60;;;;;;4986749;28;20042;-65
2023/10/11 09:49:12;;;;;;;13.75;4.15;;;20.30;78.40;;;;;;4987422;28;20120;-65
2023/10/11 09:51:41;;;;;;;8.02;3.83;;;20.40;77.80;;;;;;4986449;28;20533;-65
2023/10/11 09:54:12;;;;;;;11.25;4.07;;;20.50;77.90;;;;;;4985588;28;20076;-65
2023/10/11 09:56:50;;;;;;;9.95;4.38;;;20.60;77.30;;;;;;4986419;28;20042;-65
2023/10/11 09:59:24;;;;;;;9.98;3.58;;;20.70;77.30;;;;;;4987304;28;20418;-66
2023/10/11 10:02:02;;;;;;;13.45;3.83;;;20.80;77.30;;;;;;4985303;28;20453;-65
2023/10/11 10:04:50;;;;;;;12.50;3.85;;;20.90;77.10;;;;;;4985571;28;20508;-65
2023/10/11 10:07:25;;;;;;;14.23;3.58;;;21.00;76.30;;;;;;4986659;28;20038;-66
2023/10/11 10:09:59;;;;;;;10.35;3.50;;;21.10;76.30;;;;;;4984846;28;20581;-65
2023/10/11 10:12:40;;;;;;;10.45;3.67;;;21.20;76.30;;;;;;4985235;28;20545;-65
2023/10/11 10:15:14;;;;;;;12.38;3.65;;;21.30;75.70;;;;;;4986114;28;20043;-66
2023/10/11 10:18:03;;;;;;;14.43;4.03;;;21.50;75.90;;;;;;4985251;28;20518;-65
2023/10/11 10:20:34;;;;;;;12.70;4.00;;;21.60;74.40;;;;;;4986661;28;20053;-65
2023/10/11 10:23:15;;;;;;;10.73;3.53;;;21.80;74.40;;;;;;4984298;28;20112;-65
2023/10/11 10:25:46;;;;;;;8.15;3.00;;;21.90;72.50;;;;;;4985264;28;20054;-65
2023/10/11 10:28:36;;;;;;;13.93;3.75;;;22.00;73.40;;;;;;4987856;28;20269;-65
2023/10/11 10:31:04;;;;;;;13.05;3.78;;;22.20;71.30;;;;;;4986318;28;20075;-65
2023/10/11 10:33:35;;;;;;;12.02;3.50;;;22.30;72.10;;;;;;4986765;28;20061;-65
2023/10/11 10:36:20;;;;;;;14.10;3.83;;;22.40;71.70;;;;;;4982861;28;20075;-65
2023/10/11 10:39:01;;;;;;;8.25;3.35;;;22.50;70.70;;;;;;4985757;28;20045;-65
2023/10/11 10:41:30;;;;;;;10.63;3.22;;;22.60;69.90;;;;;;4985936;28;20121;-65
2023/10/11 10:44:18;;;;;;;12.77;3.47;;;22.70;70.40;;;;;;4985677;28;20034;-65
2023/10/11 10:46:51;;;;;;;14.57;3.05;;;22.80;67.10;;;;;;4985389;28;20533;-65
2023/10/11 10:49:18;;;;;;;9.10;2.95;;;22.90;67.60;;;;;;4988052;28;20522;-65
2023/10/11 10:51:47;;;;;;;10.68;3.47;;;23.00;67.40;;;;;;4985805;28;20042;-65
2023/10/11 10:54:14;;;;;;;16.02;3.40;;;23.10;66.70;;;;;;4985064;28;20034;-65
2023/10/11 10:56:43;;;;;;;16.58;3.63;;;23.10;65.30;;;;;;4984972;28;20188;-65
2023/10/11 10:59:14;;;;;;;9.27;2.80;;;23.20;64.50;;;;;;4986903;28;20030;-65
2023/10/11 11:01:46;;;;;;;11.50;3.25;;;23.30;64.10;;;;;;4986213;28;20101;-65
2023/10/11 11:04:13;;;;;;;12.68;3.33;;;23.30;64.40;;;;;;4984580;28;20073;-65
2023/10/11 11:06:41;;;;;;;12.68;3.10;;;23.40;64.00;;;;;;4985043;28;20035;-65
2023/10/11 11:09:13;;;;;;;13.85;3.78;;;23.50;63.60;;;;;;4985653;28;20034;-65
2023/10/11 11:11:40;;;;;;;14.70;3.78;;;23.50;62.90;;;;;;4985085;28;20026;-65
2023/10/11 11:14:10;;;;;;;15.43;3.38;;;23.60;62.70;;;;;;4986051;28;20026;-65
2023/10/11 11:16:39;;;;;;;13.80;3.50;;;23.70;61.50;;;;;;4985236;28;20023;-65
2023/10/11 11:19:25;;;;;;;19.27;3.28;;;23.80;60.70;;;;;;4985655;28;20049;-65
2023/10/11 11:22:15;;;;;;;7.43;3.13;;;23.90;59.50;;;;;;4984659;28;20070;-65
2023/10/11 11:24:43;;;;;;;12.75;3.22;;;24.00;59.80;;;;;;4984793;28;20048;-65
2023/10/11 11:27:26;;;;;;;8.70;2.67;;;24.00;60.60;;;;;;4985531;28;20045;-65
2023/10/11 11:29:53;;;;;;;12.13;3.20;;;24.10;59.30;;;;;;4986983;28;20052;-65
2023/10/11 11:32:38;;;;;;;11.20;2.67;;;24.20;59.90;;;;;;4984045;28;20530;-65
2023/10/11 11:35:28;;;;;;;12.85;2.92;;;24.30;58.20;;;;;;4992389;28;20178;-65
2023/10/11 11:38:02;;;;;;;10.95;2.88;;;24.40;59.50;;;;;;4988847;28;20426;-66
2023/10/11 11:40:31;;;;;;;13.10;3.03;;;24.50;58.90;;;;;;4986514;28;20027;-66
2023/10/11 11:43:00;;;;;;;11.90;3.08;;;24.60;59.00;;;;;;4985991;28;20027;-65
2023/10/11 11:45:29;;;;;;;9.50;2.78;;;24.70;58.20;;;;;;4989571;28;20121;-66
2023/10/11 11:47:58;;;;;;;12.35;3.33;;;24.70;57.70;;;;;;4988316;28;20553;-65
2023/10/11 11:50:25;;;;;;;9.35;2.72;;;24.70;57.30;;;;;;4988829;28;20442;-66
2023/10/11 11:52:50;;;;;;;10.18;3.08;;;24.80;56.70;;;;;;4989241;28;20039;-65
2023/10/11 11:55:20;;;;;;;12.35;2.75;;;24.90;56.30;;;;;;4988093;28;20437;-66
2023/10/11 11:57:47;;;;;;;9.68;2.42;;;25.00;55.90;;;;;;4988470;28;20494;-65
2023/10/11 12:01:08;;;;;;;22.40;2.80;;;25.00;56.00;;;;;;4990820;28;20394;-66
2023/10/11 12:03:04;;;;;;;6.13;2.58;;;25.10;55.80;;;;;;4982767;28;20057;-66
2023/10/11 12:05:37;;;;;;;7.40;2.72;;;25.10;55.70;;;;;;4989227;28;20034;-66
2023/10/11 12:08:08;;;;;;;9.23;2.88;;;25.10;55.20;;;;;;4987438;28;20165;-66
2023/10/11 12:10:34;;;;;;;8.70;2.60;;;25.20;54.70;;;;;;4988851;28;20039;-65
2023/10/11 12:13:05;;;;;;;12.93;2.63;;;25.20;54.50;;;;;;4987750;28;20588;-65
2023/10/11 12:15:37;;;;;;;11.38;2.65;;;25.30;54.10;;;;;;4988677;28;20085;-65
2023/10/11 12:18:05;;;;;;;9.63;2.65;;;25.30;53.10;;;;;;4988649;28;20085;-65
2023/10/11 12:20:34;;;;;;;11.50;2.47;;;25.40;54.10;;;;;;4989295;28;20030;-65
2023/10/11 12:23:10;;;;;;;10.02;2.53;;;25.40;53.40;;;;;;4988047;28;20034;-65
2023/10/11 12:25:36;;;;;;;15.65;2.47;;;25.40;52.70;;;;;;4989216;28;20122;-65
2023/10/11 12:28:04;;;;;;;9.45;2.45;;;25.50;52.90;;;;;;4987882;28;20087;-66
2023/10/11 12:30:33;;;;;;;7.40;2.53;;;25.50;52.60;;;;;;4987638;28;20126;-66
2023/10/11 12:33:09;;;;;;;7.43;2.35;;;25.50;52.00;;;;;;4989301;28;20584;-65
2023/10/11 12:35:40;;;;;;;8.63;2.83;;;25.60;52.10;;;;;;4988786;28;20034;-65
2023/10/11 12:38:07;;;;;;;11.52;2.58;;;25.60;51.30;;;;;;4985792;28;20609;-65
2023/10/11 12:40:34;;;;;;;7.30;2.22;;;25.60;51.70;;;;;;4987620;28;20126;-65
2023/10/11 12:43:02;;;;;;;10.50;2.55;;;25.60;51.90;;;;;;4989208;28;20081;-66
2023/10/11 12:45:27;;;;;;;8.70;2.45;;;25.60;51.40;;;;;;4990209;28;20034;-65
2023/10/11 12:47:53;;;;;;;7.95;2.88;;;25.70;51.10;;;;;;4990670;28;20046;-66
2023/10/11 12:50:20;;;;;;;9.82;2.50;;;25.70;51.00;;;;;;4987533;28;20494;-65
2023/10/11 12:52:46;;;;;;;13.40;2.40;;;25.70;50.80;;;;;;4989654;28;20134;-65
2023/10/11 12:55:15;;;;;;;7.90;2.35;;;25.70;50.30;;;;;;4987740;28;20064;-65
2023/10/11 12:57:41;;;;;;;9.77;2.45;;;25.80;49.90;;;;;;4986313;28;20061;-66
2023/10/11 13:00:28;;;;;;;13.65;2.22;;;25.80;49.80;;;;;;4989882;28;20034;-65
2023/10/11 13:02:58;;;;;;;8.55;2.20;;;25.90;49.10;;;;;;4987816;28;20062;-65
2023/10/11 13:05:33;;;;;;;6.90;2.30;;;25.90;49.80;;;;;;4990274;28;20096;-65
2023/10/11 13:07:58;;;;;;;11.27;2.90;;;25.90;49.90;;;;;;4989683;28;20042;-65
2023/10/11 13:10:25;;;;;;;7.45;2.13;;;25.90;49.50;;;;;;4988773;28;20132;-66
2023/10/11 13:12:53;;;;;;;9.10;2.60;;;26.00;49.40;;;;;;4989515;28;20447;-65
2023/10/11 13:15:22;;;;;;;6.50;2.60;;;26.00;49.00;;;;;;4989747;28;20422;-66
2023/10/11 13:17:49;;;;;;;5.07;2.28;;;26.00;48.00;;;;;;4989533;28;20414;-65
2023/10/11 13:20:31;;;;;;;15.15;3.00;;;26.10;48.70;;;;;;4989818;28;20026;-65
2023/10/11 13:22:57;;;;;;;6.90;2.75;;;26.10;49.00;;;;;;4989322;28;20376;-65
2023/10/11 13:25:25;;;;;;;7.50;2.70;;;26.10;48.80;;;;;;4990042;28;20117;-65
2023/10/11 13:27:54;;;;;;;9.80;2.40;;;26.20;49.20;;;;;;4988863;28;20085;-66
2023/10/11 13:30:25;;;;;;;8.05;2.42;;;26.20;49.40;;;;;;4989779;28;20536;-65
2023/10/11 13:32:51;;;;;;;9.40;2.63;;;26.20;48.90;;;;;;4988977;28;20124;-65
2023/10/11 13:35:17;;;;;;;7.93;2.40;;;26.30;49.50;;;;;;4989514;28;20030;-65
2023/10/11 13:37:46;;;;;;;7.07;2.40;;;26.30;49.50;;;;;;4989623;28;20118;-66
2023/10/11 13:40:14;;;;;;;9.00;2.47;;;26.30;49.00;;;;;;4989680;28;20034;-66
2023/10/11 13:42:42;;;;;;;3.88;2.20;;;26.40;48.70;;;;;;4988820;28;20038;-66
2023/10/11 13:45:16;;;;;;;7.38;2.55;;;26.40;49.00;;;;;;4989196;28;20045;-66
2023/10/11 13:47:50;;;;;;;8.87;2.87;;;26.40;49.00;;;;;;4989399;28;20536;-66
2023/10/11 13:50:22;;;;;;;9.55;2.50;;;26.40;49.10;;;;;;4989465;28;20053;-66
2023/10/11 13:52:53;;;;;;;6.78;2.35;;;26.50;49.10;;;;;;4988751;28;20038;-66